createdAt,value
2019-03-01T00:00:01.570Z,1012.28
2019-03-01T00:05:03.348Z,1012.22
2019-03-01T00:10:02.867Z,1012.2
2019-03-01T00:15:03.215Z,1012.14
2019-03-01T00:20:02.623Z,1012.13
2019-03-01T00:25:02.990Z,1012.16
2019-03-01T00:30:02.316Z,1012.14
2019-03-01T00:35:01.922Z,1012.07
2019-03-01T00:40:02.352Z,1012.06
2019-03-01T00:45:02.728Z,1012.01
2019-03-01T00:50:03.140Z,1011.95
2019-03-01T00:55:02.594Z,1011.9
2019-03-01T01:00:02.988Z,1011.81
2019-03-01T01:05:02.931Z,1011.79
2019-03-01T01:10:02.366Z,1011.74
2019-03-01T01:15:02.805Z,1011.75
2019-03-01T01:20:03.268Z,1011.69
2019-03-01T01:25:02.661Z,1011.59
2019-03-01T01:30:02.997Z,1011.5
2019-03-01T01:35:02.576Z,1011.44
2019-03-01T01:40:03.114Z,1011.45
2019-03-01T01:45:01.675Z,1011.38
2019-03-01T01:50:03.038Z,1011.39
2019-03-01T01:55:02.440Z,1011.4
2019-03-01T02:00:02.782Z,1011.47
2019-03-01T02:05:03.232Z,1011.37
2019-03-01T02:10:02.641Z,1011.35
2019-03-01T02:15:03.094Z,1011.33
2019-03-01T02:20:02.500Z,1011.27
2019-03-01T02:25:02.854Z,1011.25
2019-03-01T02:30:03.231Z,1011.22
2019-03-01T02:35:02.611Z,1011.25
2019-03-01T02:40:03.056Z,1011.21
2019-03-01T02:45:02.483Z,1011.27
2019-03-01T02:50:02.821Z,1011.18
2019-03-01T02:55:03.264Z,1011.13
2019-03-01T03:00:02.676Z,1011.05
2019-03-01T03:05:03.022Z,1011.01
2019-03-01T03:10:02.475Z,1011.08
2019-03-01T03:15:02.881Z,1011.06
2019-03-01T03:20:03.323Z,1010.99
2019-03-01T03:25:02.734Z,1011.03
2019-03-01T03:30:03.094Z,1011.06
2019-03-01T03:35:02.546Z,1011.09
2019-03-01T03:40:02.947Z,1011.06
2019-03-01T03:45:03.315Z,1011.12
2019-03-01T03:50:02.704Z,1011.07
2019-03-01T03:55:03.051Z,1011.16
2019-03-01T04:00:02.605Z,1011.07
2019-03-01T04:05:03.057Z,1011.1
2019-03-01T04:10:02.544Z,1011.05
2019-03-01T04:15:02.915Z,1011.11
2019-03-01T04:20:03.270Z,1011.1
2019-03-01T04:25:02.652Z,1011.14
2019-03-01T04:30:03.081Z,1011.18
2019-03-01T04:35:02.496Z,1011.17
2019-03-01T04:40:02.943Z,1011.15
2019-03-01T04:45:03.287Z,1011.12
2019-03-01T04:50:02.692Z,1011.17
2019-03-01T04:55:03.057Z,1011.1
2019-03-01T05:00:02.414Z,1011.17
2019-03-01T05:05:02.846Z,1011.25
2019-03-01T05:10:03.252Z,1011.24
2019-03-01T05:15:02.696Z,1011.32
2019-03-01T05:20:03.072Z,1011.34
2019-03-01T05:25:02.466Z,1011.34
2019-03-01T05:30:03.011Z,1011.42
2019-03-01T05:35:02.393Z,1011.47
2019-03-01T05:40:02.874Z,1011.53
2019-03-01T05:45:03.316Z,1011.51
2019-03-01T05:50:02.697Z,1011.6
2019-03-01T05:55:03.180Z,1011.62
2019-03-01T06:00:02.558Z,1011.79
2019-03-01T06:05:02.900Z,1011.78
2019-03-01T06:10:03.355Z,1011.84
2019-03-01T06:15:02.743Z,1011.87
2019-03-01T06:20:03.314Z,1011.88
2019-03-01T06:25:02.748Z,1011.89
2019-03-01T06:30:03.176Z,1011.94
2019-03-01T06:35:02.580Z,1012.04
2019-03-01T06:40:03.116Z,1012.06
2019-03-01T06:45:02.481Z,1012.11
2019-03-01T06:50:02.904Z,1012.18
2019-03-01T06:55:02.530Z,1012.28
2019-03-01T07:00:03.168Z,1012.28
2019-03-01T07:05:02.511Z,1012.37
2019-03-01T07:10:02.927Z,1012.43
2019-03-01T07:15:03.264Z,1012.48
2019-03-01T07:20:02.707Z,1012.61
2019-03-01T07:25:03.136Z,1012.69
2019-03-01T07:30:02.544Z,1012.72
2019-03-01T07:35:02.898Z,1012.78
2019-03-01T07:40:03.341Z,1012.92
2019-03-01T07:45:02.747Z,1013.01
2019-03-01T07:50:03.105Z,1013.18
2019-03-01T07:55:02.505Z,1013.18
2019-03-01T08:00:02.859Z,1013.4
2019-03-01T08:05:04.024Z,1013.46
2019-03-01T08:10:02.503Z,1013.46
2019-03-01T08:15:04.056Z,1013.52
2019-03-01T08:20:02.478Z,1013.53
2019-03-01T08:25:02.818Z,1013.62
2019-03-01T08:30:03.162Z,1013.69
2019-03-01T08:35:02.572Z,1013.7
2019-03-01T08:40:03.022Z,1013.84
2019-03-01T08:45:02.917Z,1013.84
2019-03-01T08:50:02.401Z,1013.85
2019-03-01T08:55:03.507Z,1013.91
2019-03-01T09:00:02.957Z,1013.91
2019-03-01T09:05:05.135Z,1014.03
2019-03-01T09:10:02.844Z,1014.02
2019-03-01T09:15:04.528Z,1014.16
2019-03-01T09:20:02.577Z,1014.25
2019-03-01T09:25:06.349Z,1014.31
2019-03-01T09:30:03.920Z,1014.31
2019-03-01T09:35:04.366Z,1014.46
2019-03-01T09:40:05.563Z,1014.47
2019-03-01T09:45:02.347Z,1014.49
2019-03-01T09:50:02.780Z,1014.62
2019-03-01T09:55:03.123Z,1014.63
2019-03-01T10:00:02.549Z,1014.63
2019-03-01T10:05:03.015Z,1014.84
2019-03-01T10:10:02.527Z,1014.84
2019-03-01T10:15:02.953Z,1015.21
2019-03-01T10:20:03.296Z,1015.29
2019-03-01T10:25:02.703Z,1015.29
2019-03-01T10:30:03.047Z,1015.29
2019-03-01T10:35:02.462Z,1015.49
2019-03-01T10:40:02.175Z,1015.56
2019-03-01T10:45:02.546Z,1015.67
2019-03-01T10:50:02.977Z,1015.7
2019-03-01T10:55:02.390Z,1015.78
2019-03-01T11:00:02.712Z,1015.85
2019-03-01T11:05:03.076Z,1016.01
2019-03-01T11:10:02.483Z,1016.04
2019-03-01T11:15:01.994Z,1016.28
2019-03-01T11:20:02.355Z,1016.27
2019-03-01T11:25:02.689Z,1016.29
2019-03-01T11:30:03.041Z,1016.42
2019-03-01T11:35:02.454Z,1016.52
2019-03-01T11:40:02.917Z,1016.5
2019-03-01T11:45:03.339Z,1016.56
2019-03-01T11:50:02.760Z,1016.6
2019-03-01T11:55:03.095Z,1016.67
2019-03-01T12:00:02.536Z,1016.75
2019-03-01T12:05:02.874Z,1016.79
2019-03-01T12:10:03.308Z,1016.77
2019-03-01T12:15:02.713Z,1016.78
2019-03-01T12:20:03.086Z,1016.77
2019-03-01T12:25:02.482Z,1016.75
2019-03-01T12:30:02.829Z,1016.72
2019-03-01T12:35:03.168Z,1016.75
2019-03-01T12:40:02.678Z,1016.73
2019-03-01T12:45:03.033Z,1016.65
2019-03-01T12:50:02.470Z,1016.7
2019-03-01T12:55:02.910Z,1016.63
2019-03-01T13:00:03.262Z,1016.72
2019-03-01T13:05:02.670Z,1016.78
2019-03-01T13:10:06.176Z,1016.89
2019-03-01T13:15:03.337Z,1016.87
2019-03-01T13:20:02.806Z,1016.76
2019-03-01T13:25:03.152Z,1016.87
2019-03-01T13:30:02.506Z,1016.83
2019-03-01T13:35:02.865Z,1016.74
2019-03-01T13:40:03.307Z,1016.8
2019-03-01T13:45:02.711Z,1016.84
2019-03-01T13:50:06.093Z,1016.93
2019-03-01T13:55:03.243Z,1016.89
2019-03-01T14:00:01.864Z,1017.04
2019-03-01T14:05:03.257Z,1017.1
2019-03-01T14:10:04.805Z,1017.12
2019-03-01T14:15:03.882Z,1017.22
2019-03-01T14:20:03.256Z,1017.27
2019-03-01T14:25:05.217Z,1017.27
2019-03-01T14:30:02.395Z,1017.27
2019-03-01T14:35:02.746Z,1017.3
2019-03-01T14:40:03.183Z,1017.31
2019-03-01T14:45:02.546Z,1017.25
2019-03-01T14:50:02.949Z,1017.36
2019-03-01T14:55:03.275Z,1017.41
2019-03-01T15:00:09.768Z,1017.45
2019-03-01T15:05:05.357Z,1017.55
2019-03-01T15:10:02.977Z,1017.55
2019-03-01T15:15:02.301Z,1017.62
2019-03-01T15:20:02.742Z,1017.67
2019-03-01T15:25:03.176Z,1017.7
2019-03-01T15:30:05.739Z,1017.79
2019-03-01T15:35:04.225Z,1017.81
2019-03-01T15:40:02.885Z,1017.75
2019-03-01T15:45:05.060Z,1017.72
2019-03-01T15:50:03.246Z,1017.82
2019-03-01T15:55:02.683Z,1017.97
2019-03-01T16:00:03.341Z,1018.09
2019-03-01T16:05:02.757Z,1018.19
2019-03-01T16:10:03.175Z,1018.26
2019-03-01T16:15:02.606Z,1018.31
2019-03-01T16:20:02.960Z,1018.4
2019-03-01T16:25:03.481Z,1018.4
2019-03-01T16:30:02.888Z,1018.33
2019-03-01T16:35:03.262Z,1018.3
2019-03-01T16:40:02.750Z,1018.39
2019-03-01T16:45:03.113Z,1018.38
2019-03-01T16:50:05.814Z,1018.38
2019-03-01T16:55:02.484Z,1018.37
2019-03-01T17:00:02.936Z,1018.35
2019-03-01T17:05:04.728Z,1018.45
2019-03-01T17:10:03.265Z,1018.39
2019-03-01T17:15:02.692Z,1018.39
2019-03-01T17:20:03.658Z,1018.43
2019-03-01T17:25:03.169Z,1018.51
2019-03-01T17:30:02.613Z,1018.48
2019-03-01T17:35:04.960Z,1018.52
2019-03-01T17:40:02.449Z,1018.57
2019-03-01T17:45:02.795Z,1018.67
2019-03-01T17:50:05.527Z,1018.69
2019-03-01T17:55:02.745Z,1018.69
2019-03-01T18:00:03.234Z,1018.68
2019-03-01T18:05:02.605Z,1018.76
2019-03-01T18:10:03.073Z,1018.86
2019-03-01T18:15:02.470Z,1018.81
2019-03-01T18:20:02.822Z,1018.82
2019-03-01T18:25:03.153Z,1018.84
2019-03-01T18:30:02.570Z,1018.87
2019-03-01T18:35:02.981Z,1018.89
2019-03-01T18:40:02.443Z,1018.84
2019-03-01T18:45:03.495Z,1018.87
2019-03-01T18:50:03.234Z,1018.89
2019-03-01T18:55:02.646Z,1018.91
2019-03-01T19:00:02.989Z,1018.95
2019-03-01T19:05:04.487Z,1019.01
2019-03-01T19:10:02.958Z,1019.03
2019-03-01T19:15:03.299Z,1018.99
2019-03-01T19:20:05.668Z,1018.94
2019-03-01T19:25:02.866Z,1019.02
2019-03-01T19:30:05.014Z,1019.02
2019-03-01T19:35:02.501Z,1018.95
2019-03-01T19:40:03.054Z,1018.88
2019-03-01T19:45:04.858Z,1018.81
2019-03-01T19:50:03.359Z,1018.77
2019-03-01T19:55:02.749Z,1018.82
2019-03-01T20:00:03.109Z,1018.79
2019-03-01T20:05:02.523Z,1018.91
2019-03-01T20:10:02.991Z,1018.98
2019-03-01T20:15:02.373Z,1019.0
2019-03-01T20:20:02.844Z,1019.1
2019-03-01T20:25:03.304Z,1019.06
2019-03-01T20:30:04.248Z,1019.05
2019-03-01T20:35:02.829Z,1019.04
2019-03-01T20:40:03.270Z,1019.02
2019-03-01T20:45:02.675Z,1019.05
2019-03-01T20:50:03.597Z,1019.04
2019-03-01T20:55:03.062Z,1019.06
2019-03-01T21:00:02.855Z,1019.14
2019-03-01T21:05:03.257Z,1019.18
2019-03-01T21:10:02.630Z,1019.22
2019-03-01T21:15:03.104Z,1019.14
2019-03-01T21:20:02.552Z,1019.2
2019-03-01T21:25:03.240Z,1019.25
2019-03-01T21:30:02.886Z,1019.15
2019-03-01T21:35:03.212Z,1019.22
2019-03-01T21:40:03.237Z,1019.17
2019-03-01T21:45:02.667Z,1019.21
2019-03-01T21:50:04.269Z,1019.2
2019-03-01T21:55:03.147Z,1019.17
2019-03-01T22:00:02.562Z,1019.2
2019-03-01T22:05:02.906Z,1019.14
2019-03-01T22:10:03.292Z,1019.1
2019-03-01T22:15:02.654Z,1019.11
2019-03-01T22:20:05.717Z,1019.08
2019-03-01T22:25:03.339Z,1019.19
2019-03-01T22:30:02.770Z,1019.3
2019-03-01T22:35:07.860Z,1019.27
2019-03-01T22:40:02.820Z,1019.23
2019-03-01T22:45:03.210Z,1019.26
2019-03-01T22:50:04.043Z,1019.22
2019-03-01T22:55:03.135Z,1019.19
2019-03-01T23:00:02.447Z,1019.17
2019-03-01T23:05:03.833Z,1019.2
2019-03-01T23:10:03.240Z,1019.14
2019-03-01T23:15:06.298Z,1019.15
2019-03-01T23:20:03.111Z,1019.07
2019-03-01T23:25:02.516Z,1019.06
2019-03-01T23:30:02.862Z,1019.06
2019-03-01T23:35:03.204Z,1019.02
2019-03-01T23:40:02.617Z,1019.1
2019-03-01T23:45:02.961Z,1019.0
2019-03-01T23:50:03.308Z,1018.96
2019-03-01T23:55:02.725Z,1019.0
